createdAt,value
2018-02-04T00:01:52.921Z,9.77
2018-02-04T00:04:20.412Z,9.37
2018-02-04T00:06:47.862Z,8.80
2018-02-04T00:09:15.349Z,9.27
2018-02-04T00:11:42.793Z,9.90
2018-02-04T00:14:10.228Z,8.77
2018-02-04T00:16:37.687Z,8.40
2018-02-04T00:19:05.149Z,9.50
2018-02-04T00:21:32.625Z,8.20
2018-02-04T00:24:00.054Z,7.90
2018-02-04T00:26:27.511Z,9.00
2018-02-04T00:28:54.977Z,10.30
2018-02-04T00:31:22.413Z,9.90
2018-02-04T00:33:50.209Z,10.37
2018-02-04T00:36:17.673Z,9.93
2018-02-04T00:38:45.121Z,10.63
2018-02-04T00:41:12.589Z,8.60
2018-02-04T00:43:40.029Z,9.97
2018-02-04T00:46:07.674Z,9.33
2018-02-04T00:48:35.113Z,10.67
2018-02-04T00:51:02.557Z,10.67
2018-02-04T00:53:30.025Z,11.17
2018-02-04T00:55:57.461Z,11.20
2018-02-04T00:58:25.025Z,9.60
2018-02-04T01:00:52.461Z,10.73
2018-02-04T01:03:19.900Z,11.73
2018-02-04T01:05:47.356Z,9.83
2018-02-04T01:08:14.796Z,11.70
2018-02-04T01:10:42.273Z,12.23
2018-02-04T01:13:09.716Z,10.47
2018-02-04T01:15:37.168Z,11.63
2018-02-04T01:18:04.684Z,10.97
2018-02-04T01:20:32.122Z,9.90
2018-02-04T01:22:59.731Z,10.67
2018-02-04T01:25:27.168Z,11.33
2018-02-04T01:27:54.613Z,10.50
2018-02-04T01:30:22.077Z,10.60
2018-02-04T01:32:49.522Z,10.67
2018-02-04T01:35:17.001Z,10.20
2018-02-04T01:37:44.484Z,11.13
2018-02-04T01:40:11.937Z,10.60
2018-02-04T01:42:39.410Z,10.67
2018-02-04T01:45:06.849Z,9.50
2018-02-04T01:47:34.317Z,9.27
2018-02-04T01:50:01.799Z,9.47
2018-02-04T01:52:29.237Z,8.93
2018-02-04T01:54:56.712Z,9.40
2018-02-04T01:57:24.144Z,8.83
2018-02-04T01:59:51.609Z,9.60
2018-02-04T02:02:19.069Z,10.40
2018-02-04T02:04:46.549Z,8.17
2018-02-04T02:07:14.010Z,10.37
2018-02-04T02:09:41.466Z,9.13
2018-02-04T02:12:08.949Z,10.10
2018-02-04T02:14:36.400Z,9.30
2018-02-04T02:17:03.837Z,9.53
2018-02-04T02:19:31.342Z,9.97
2018-02-04T02:21:58.796Z,8.70
2018-02-04T02:24:26.454Z,9.67
2018-02-04T02:26:53.908Z,9.57
2018-02-04T02:29:21.346Z,10.73
2018-02-04T02:31:48.802Z,9.70
2018-02-04T02:34:16.253Z,9.13
2018-02-04T02:36:43.729Z,9.00
2018-02-04T02:39:11.164Z,9.00
2018-02-04T02:41:38.609Z,11.40
2018-02-04T02:44:06.072Z,9.90
2018-02-04T02:46:33.521Z,9.40
2018-02-04T02:49:01.323Z,9.83
2018-02-04T02:51:28.760Z,9.87
2018-02-04T02:53:56.200Z,9.37
2018-02-04T02:56:23.673Z,9.27
2018-02-04T02:58:51.115Z,8.77
2018-02-04T03:01:18.710Z,10.70
2018-02-04T03:03:46.154Z,8.50
2018-02-04T03:06:13.588Z,11.17
2018-02-04T03:08:41.057Z,10.30
2018-02-04T03:11:08.497Z,9.20
2018-02-04T03:13:36.095Z,9.70
2018-02-04T03:16:03.572Z,9.77
2018-02-04T03:18:31.011Z,9.30
2018-02-04T03:20:58.468Z,9.80
2018-02-04T03:23:25.904Z,10.37
2018-02-04T03:25:53.377Z,10.23
2018-02-04T03:28:20.821Z,10.53
2018-02-04T03:30:48.263Z,9.80
2018-02-04T03:33:15.728Z,10.67
2018-02-04T03:35:43.165Z,10.90
2018-02-04T03:38:10.921Z,10.50
2018-02-04T03:40:38.370Z,10.67
2018-02-04T03:43:05.829Z,12.33
2018-02-04T03:45:33.293Z,10.83
2018-02-04T03:48:00.740Z,10.87
2018-02-04T03:50:28.273Z,11.53
2018-02-04T03:52:55.713Z,10.97
2018-02-04T03:55:23.177Z,9.97
2018-02-04T03:57:50.648Z,10.13
2018-02-04T04:00:18.087Z,10.50
2018-02-04T04:02:45.836Z,10.67
2018-02-04T04:05:13.281Z,9.23
2018-02-04T04:07:40.725Z,10.03
2018-02-04T04:10:08.210Z,11.00
2018-02-04T04:12:35.664Z,9.80
2018-02-04T04:15:03.137Z,9.30
2018-02-04T04:17:30.628Z,12.10
2018-02-04T04:19:58.070Z,10.20
2018-02-04T04:22:25.544Z,11.03
2018-02-04T04:24:52.981Z,10.60
2018-02-04T04:27:20.460Z,10.70
2018-02-04T04:29:47.900Z,10.87
2018-02-04T04:32:15.344Z,10.13
2018-02-04T04:34:42.804Z,10.10
2018-02-04T04:37:10.253Z,11.17
2018-02-04T04:39:37.889Z,11.17
2018-02-04T04:42:05.325Z,10.87
2018-02-04T04:44:32.764Z,10.60
2018-02-04T04:47:00.720Z,10.43
2018-02-04T04:49:28.288Z,12.27
2018-02-04T04:51:55.798Z,11.87
2018-02-04T04:54:23.240Z,9.50
2018-02-04T04:56:50.680Z,9.70
2018-02-04T04:59:18.144Z,11.77
2018-02-04T05:01:45.593Z,11.40
2018-02-04T05:04:13.060Z,11.90
2018-02-04T05:06:40.512Z,12.90
2018-02-04T05:09:07.965Z,12.10
2018-02-04T05:11:35.438Z,11.43
2018-02-04T05:14:02.881Z,10.40
2018-02-04T05:16:30.680Z,11.60
2018-02-04T05:18:58.139Z,14.00
2018-02-04T05:21:25.584Z,12.20
2018-02-04T05:23:53.121Z,11.50
2018-02-04T05:26:20.570Z,13.20
2018-02-04T05:28:48.448Z,12.87
2018-02-04T05:31:15.904Z,11.93
2018-02-04T05:33:43.355Z,12.60
2018-02-04T05:36:10.822Z,12.40
2018-02-04T05:38:38.269Z,11.17
2018-02-04T05:41:05.939Z,11.40
2018-02-04T05:43:33.396Z,13.80
2018-02-04T05:46:00.845Z,11.63
2018-02-04T05:48:28.309Z,12.63
2018-02-04T05:50:55.773Z,12.40
2018-02-04T05:53:23.344Z,12.30
2018-02-04T05:55:50.797Z,11.40
2018-02-04T05:58:18.239Z,11.27
2018-02-04T06:00:45.705Z,11.67
2018-02-04T06:03:13.151Z,15.30
2018-02-04T06:05:40.808Z,12.40
2018-02-04T06:08:08.254Z,12.00
2018-02-04T06:10:35.696Z,14.17
2018-02-04T06:13:03.166Z,13.90
2018-02-04T06:15:30.646Z,12.20
2018-02-04T06:17:58.336Z,12.00
2018-02-04T06:20:25.808Z,12.40
2018-02-04T06:22:53.258Z,13.00
2018-02-04T06:25:20.724Z,13.50
2018-02-04T06:27:48.168Z,13.30
2018-02-04T06:30:15.653Z,13.90
2018-02-04T06:32:43.093Z,11.97
2018-02-04T06:35:10.547Z,15.20
2018-02-04T06:37:38.053Z,13.83
2018-02-04T06:40:05.508Z,14.17
2018-02-04T06:42:33.009Z,13.50
2018-02-04T06:45:00.465Z,13.67
2018-02-04T06:47:27.941Z,14.10
2018-02-04T06:49:55.409Z,13.40
2018-02-04T06:52:22.857Z,14.90
2018-02-04T06:54:50.352Z,11.83
2018-02-04T06:57:17.813Z,14.00
2018-02-04T06:59:45.257Z,12.93
2018-02-04T07:02:12.749Z,12.57
2018-02-04T07:04:40.204Z,11.67
2018-02-04T07:07:07.865Z,12.23
2018-02-04T07:09:35.337Z,12.20
2018-02-04T07:12:02.773Z,12.43
2018-02-04T07:14:30.240Z,13.07
2018-02-04T07:16:57.688Z,14.33
2018-02-04T07:19:25.336Z,13.60
2018-02-04T07:21:52.792Z,14.87
2018-02-04T07:24:20.256Z,14.60
2018-02-04T07:26:47.724Z,12.50
2018-02-04T07:29:15.212Z,11.80
2018-02-04T07:31:42.701Z,10.40
2018-02-04T07:34:10.144Z,9.07
2018-02-04T07:36:37.588Z,8.90
2018-02-04T07:39:05.045Z,7.47
2018-02-04T07:41:32.516Z,6.90
2018-02-04T07:44:00.153Z,8.00
2018-02-04T07:46:28.532Z,6.70
2018-02-04T07:48:55.986Z,6.80
2018-02-04T07:51:23.462Z,6.90
2018-02-04T07:53:51.056Z,6.17
2018-02-04T07:56:18.517Z,7.07
2018-02-04T07:58:45.958Z,7.00
2018-02-04T08:01:13.397Z,5.03
2018-02-04T08:03:40.857Z,7.27
2018-02-04T08:06:08.297Z,6.10
2018-02-04T08:08:35.786Z,6.23
2018-02-04T08:11:03.225Z,6.80
2018-02-04T08:13:30.661Z,7.10
2018-02-04T08:15:58.117Z,6.97
2018-02-04T08:18:25.617Z,6.17
2018-02-04T08:20:53.474Z,6.77
2018-02-04T08:23:20.913Z,5.20
2018-02-04T08:25:48.355Z,7.40
2018-02-04T08:28:15.818Z,8.50
2018-02-04T08:30:43.253Z,7.73
2018-02-04T08:33:10.965Z,9.97
2018-02-04T08:35:38.461Z,9.27
2018-02-04T08:38:05.874Z,9.13
2018-02-04T08:40:33.344Z,9.83
2018-02-04T08:43:00.791Z,8.63
2018-02-04T08:45:28.448Z,9.50
2018-02-04T08:47:55.896Z,10.00
2018-02-04T08:50:23.349Z,9.13
2018-02-04T08:52:50.813Z,9.30
2018-02-04T08:55:18.284Z,9.87
2018-02-04T08:57:45.937Z,8.37
2018-02-04T09:00:13.373Z,9.30
2018-02-04T09:02:40.809Z,8.20
2018-02-04T09:05:08.269Z,8.87
2018-02-04T09:07:35.714Z,8.10
2018-02-04T09:10:03.381Z,8.60
2018-02-04T09:12:30.788Z,9.57
2018-02-04T09:17:50.801Z,8.20
2018-02-04T09:20:18.341Z,8.60
2018-02-04T09:22:45.825Z,8.47
2018-02-04T09:25:13.281Z,8.00
2018-02-04T09:27:40.736Z,7.77
2018-02-04T09:30:08.193Z,7.77
2018-02-04T09:32:35.632Z,6.97
2018-02-04T09:35:03.280Z,5.90
2018-02-04T09:37:30.898Z,6.00
2018-02-04T09:39:58.357Z,5.90
2018-02-04T09:42:25.818Z,6.33
2018-02-04T09:44:53.281Z,7.03
2018-02-04T09:47:20.888Z,6.77
2018-02-04T09:49:48.330Z,6.77
2018-02-04T09:52:15.766Z,7.23
2018-02-04T09:54:43.244Z,6.70
2018-02-04T09:57:10.705Z,6.70
2018-02-04T09:59:38.379Z,6.40
2018-02-04T10:02:05.817Z,6.57
2018-02-04T10:04:33.262Z,7.80
2018-02-04T10:07:00.736Z,7.13
2018-02-04T10:09:28.189Z,6.50
2018-02-04T10:11:55.964Z,6.57
2018-02-04T10:14:23.421Z,6.30
2018-02-04T10:16:50.865Z,5.10
2018-02-04T10:19:18.358Z,5.63
2018-02-04T10:21:46.354Z,6.03
2018-02-04T10:24:15.400Z,5.70
2018-02-04T10:26:43.404Z,5.00
2018-02-04T10:29:11.145Z,6.60
2018-02-04T10:31:39.873Z,6.30
2018-02-04T10:34:08.120Z,7.40
2018-02-04T10:36:36.239Z,6.60
2018-02-04T10:39:03.963Z,5.90
2018-02-04T10:41:32.379Z,6.73
2018-02-04T10:44:00.401Z,5.50
2018-02-04T10:46:27.845Z,6.40
2018-02-04T10:48:55.507Z,6.90
2018-02-04T10:51:28.556Z,6.60
2018-02-04T10:53:56.228Z,6.40
2018-02-04T10:56:23.693Z,5.77
2018-02-04T10:58:51.172Z,6.50
2018-02-04T11:01:18.702Z,7.10
2018-02-04T11:03:46.189Z,6.97
2018-02-04T11:06:13.949Z,6.47
2018-02-04T11:08:41.401Z,5.90
2018-02-04T11:11:08.838Z,6.30
2018-02-04T11:13:36.300Z,5.23
2018-02-04T11:16:03.769Z,5.80
2018-02-04T11:18:31.436Z,6.43
2018-02-04T11:20:58.873Z,6.67
2018-02-04T11:23:26.321Z,5.20
2018-02-04T11:25:53.794Z,5.47
2018-02-04T11:28:21.284Z,5.77
2018-02-04T11:30:49.003Z,6.40
2018-02-04T11:33:16.448Z,6.67
2018-02-04T11:35:43.889Z,6.50
2018-02-04T11:38:11.356Z,6.07
2018-02-04T11:40:38.793Z,6.90
2018-02-04T11:43:06.264Z,5.40
2018-02-04T11:45:33.700Z,6.93
2018-02-04T11:48:01.144Z,7.60
2018-02-04T11:50:28.650Z,6.80
2018-02-04T11:52:56.132Z,7.40
2018-02-04T11:55:23.593Z,6.80
2018-02-04T11:57:51.029Z,5.80
2018-02-04T12:00:18.471Z,6.10
2018-02-04T12:02:45.997Z,5.43
2018-02-04T12:05:13.433Z,5.37
2018-02-04T12:07:41.072Z,6.43
2018-02-04T12:10:08.513Z,7.57
2018-02-04T12:12:35.949Z,6.30
2018-02-04T12:15:03.433Z,6.93
2018-02-04T12:17:30.874Z,7.53
2018-02-04T12:19:58.433Z,5.90
2018-02-04T12:22:25.868Z,6.17
2018-02-04T12:24:53.309Z,6.40
2018-02-04T12:27:20.768Z,6.73
2018-02-04T12:29:48.205Z,6.50
2018-02-04T12:32:16.941Z,7.20
2018-02-04T12:34:44.381Z,6.13
2018-02-04T12:37:11.833Z,5.30
2018-02-04T12:39:39.293Z,5.60
2018-02-04T12:42:06.729Z,5.30
2018-02-04T12:44:34.545Z,6.50
2018-02-04T12:47:01.996Z,6.30
2018-02-04T12:49:29.432Z,6.10
2018-02-04T12:51:56.905Z,5.50
2018-02-04T12:54:24.348Z,5.07
2018-02-04T12:56:52.025Z,4.77
2018-02-04T12:59:19.456Z,5.27
2018-02-04T13:01:46.897Z,5.70
2018-02-04T13:04:14.364Z,4.83
2018-02-04T13:06:41.857Z,4.80
2018-02-04T13:09:09.664Z,5.30
2018-02-04T13:11:37.187Z,5.27
2018-02-04T13:14:04.622Z,5.37
2018-02-04T13:16:32.334Z,4.37
2018-02-04T13:18:59.776Z,4.57
2018-02-04T13:21:27.263Z,5.40
2018-02-04T13:23:54.728Z,4.83
2018-02-04T13:26:22.164Z,4.97
2018-02-04T13:28:49.629Z,4.77
2018-02-04T13:31:17.069Z,4.63
2018-02-04T13:33:44.689Z,5.23
2018-02-04T13:36:12.125Z,5.40
2018-02-04T13:38:39.612Z,5.20
2018-02-04T13:41:07.069Z,5.23
2018-02-04T13:43:34.521Z,4.33
2018-02-04T13:46:02.001Z,3.80
2018-02-04T13:48:29.454Z,4.57
2018-02-04T13:50:56.913Z,4.10
2018-02-04T13:53:24.401Z,5.80
2018-02-04T13:55:51.847Z,5.07
2018-02-04T13:58:19.329Z,4.70
2018-02-04T14:00:46.780Z,4.80
2018-02-04T14:03:14.225Z,4.57
2018-02-04T14:05:41.710Z,4.83
2018-02-04T14:08:09.167Z,5.00
2018-02-04T14:10:37.042Z,5.00
2018-02-04T14:13:04.485Z,5.73
2018-02-04T14:15:31.921Z,4.73
2018-02-04T14:17:59.388Z,4.97
2018-02-04T14:20:26.833Z,5.47
2018-02-04T14:22:54.441Z,5.87
2018-02-04T14:25:21.885Z,4.87
2018-02-04T14:27:49.398Z,5.30
2018-02-04T14:30:16.868Z,5.67
2018-02-04T14:32:44.320Z,5.37
2018-02-04T14:35:11.896Z,5.67
2018-02-04T14:37:39.337Z,4.40
2018-02-04T14:40:06.789Z,5.57
2018-02-04T14:42:34.246Z,4.87
2018-02-04T14:45:01.711Z,5.23
2018-02-04T14:47:29.201Z,4.77
2018-02-04T14:49:56.645Z,4.77
2018-02-04T14:52:24.116Z,5.27
2018-02-04T14:54:51.576Z,4.63
2018-02-04T14:57:19.013Z,5.43
2018-02-04T14:59:46.692Z,4.53
2018-02-04T15:02:14.225Z,4.40
2018-02-04T15:04:41.661Z,4.27
2018-02-04T15:07:09.121Z,5.40
2018-02-04T15:09:36.566Z,4.47
2018-02-04T15:12:04.207Z,4.47
2018-02-04T15:14:31.646Z,4.37
2018-02-04T15:16:59.092Z,4.87
2018-02-04T15:19:26.545Z,4.40
2018-02-04T15:21:53.992Z,4.87
2018-02-04T15:24:21.481Z,4.67
2018-02-04T15:26:48.914Z,4.27
2018-02-04T15:29:16.357Z,5.10
2018-02-04T15:31:43.813Z,4.13
2018-02-04T15:34:11.245Z,3.80
2018-02-04T15:36:38.843Z,4.10
2018-02-04T15:39:06.290Z,4.00
2018-02-04T15:41:33.724Z,4.13
2018-02-04T15:44:01.208Z,4.70
2018-02-04T15:46:28.657Z,3.70
2018-02-04T15:48:56.141Z,5.03
2018-02-04T15:51:23.581Z,4.33
2018-02-04T15:53:51.041Z,4.77
2018-02-04T15:56:18.505Z,4.70
2018-02-04T15:58:45.951Z,5.57
2018-02-04T16:01:13.608Z,4.27
2018-02-04T16:03:41.057Z,4.40
2018-02-04T16:06:08.501Z,4.30
2018-02-04T16:08:35.964Z,5.20
2018-02-04T16:11:03.404Z,5.20
2018-02-04T16:13:30.994Z,4.30
2018-02-04T16:15:58.433Z,5.50
2018-02-04T16:18:25.894Z,5.00
2018-02-04T16:20:53.393Z,4.77
2018-02-04T16:23:20.833Z,4.37
2018-02-04T16:25:48.488Z,5.03
2018-02-04T16:28:15.930Z,4.40
2018-02-04T16:30:43.369Z,5.00
2018-02-04T16:33:10.828Z,5.13
2018-02-04T16:35:38.277Z,4.90
2018-02-04T16:38:05.869Z,4.00
2018-02-04T16:40:33.323Z,4.17
2018-02-04T16:43:00.762Z,4.57
2018-02-04T16:45:28.236Z,4.60
2018-02-04T16:47:55.697Z,4.70
2018-02-04T16:50:23.352Z,3.90
2018-02-04T16:52:50.798Z,4.53
2018-02-04T16:55:18.289Z,4.60
2018-02-04T16:57:45.756Z,4.40
2018-02-04T17:00:13.203Z,5.40
2018-02-04T17:02:40.949Z,5.23
2018-02-04T17:05:08.410Z,5.03
2018-02-04T17:07:35.859Z,4.37
2018-02-04T17:10:03.317Z,5.67
2018-02-04T17:12:30.753Z,4.23
2018-02-04T17:14:58.437Z,5.00
2018-02-04T17:17:25.898Z,5.03
2018-02-04T17:19:53.337Z,4.90
2018-02-04T17:22:20.802Z,4.93
2018-02-04T17:24:48.260Z,4.37
2018-02-04T17:27:15.728Z,4.70
2018-02-04T17:29:43.177Z,5.20
2018-02-04T17:32:10.612Z,5.30
2018-02-04T17:34:38.113Z,4.10
2018-02-04T17:37:05.549Z,4.70
2018-02-04T17:39:33.414Z,4.77
2018-02-04T17:42:00.864Z,4.17
2018-02-04T17:44:28.309Z,4.50
2018-02-04T17:46:55.784Z,3.57
2018-02-04T17:49:23.224Z,4.90
2018-02-04T17:51:50.704Z,4.30
2018-02-04T17:54:18.148Z,3.10
2018-02-04T17:56:45.580Z,4.37
2018-02-04T17:59:13.069Z,4.13
2018-02-04T18:01:40.501Z,5.30
2018-02-04T18:04:08.289Z,4.93
2018-02-04T18:06:35.736Z,4.23
2018-02-04T18:09:03.177Z,4.70
2018-02-04T18:11:30.634Z,4.57
2018-02-04T18:13:58.078Z,4.87
2018-02-04T18:16:25.553Z,5.00
2018-02-04T18:18:52.993Z,4.50
2018-02-04T18:21:20.433Z,4.60
2018-02-04T18:23:47.888Z,5.30
2018-02-04T18:26:15.324Z,3.90
2018-02-04T18:28:42.997Z,4.50
2018-02-04T18:31:10.501Z,3.33
2018-02-04T18:33:37.910Z,5.10
2018-02-04T18:36:05.374Z,3.63
2018-02-04T18:38:32.833Z,4.90
2018-02-04T18:41:00.320Z,4.97
2018-02-04T18:43:27.758Z,4.20
2018-02-04T18:45:55.213Z,4.03
2018-02-04T18:48:22.700Z,5.63
2018-02-04T18:50:50.137Z,5.67
2018-02-04T18:53:17.701Z,3.70
2018-02-04T18:55:45.141Z,4.47
2018-02-04T18:58:12.589Z,5.80
2018-02-04T19:00:40.065Z,6.13
2018-02-04T19:03:07.546Z,6.10
2018-02-04T19:05:35.524Z,5.57
2018-02-04T19:08:03.005Z,5.47
2018-02-04T19:10:30.608Z,4.47
2018-02-04T19:12:58.127Z,6.00
2018-02-04T19:15:25.576Z,4.70
2018-02-04T19:17:53.102Z,5.20
2018-02-04T19:20:20.546Z,5.90
2018-02-04T19:22:47.985Z,5.77
2018-02-04T19:25:15.445Z,5.70
2018-02-04T19:27:42.886Z,5.80
2018-02-04T19:30:10.936Z,5.17
2018-02-04T19:32:38.381Z,5.37
2018-02-04T19:35:06.259Z,5.47
2018-02-04T19:37:33.740Z,5.00
2018-02-04T19:40:01.181Z,5.13
2018-02-04T19:42:28.786Z,5.57
2018-02-04T19:44:56.320Z,4.63
2018-02-04T19:47:23.765Z,4.47
2018-02-04T19:49:51.247Z,4.63
2018-02-04T19:52:18.718Z,4.70
2018-02-04T19:54:46.273Z,4.97
2018-02-04T19:57:13.742Z,4.30
2018-02-04T19:59:41.200Z,5.00
2018-02-04T20:02:09.260Z,4.63
2018-02-04T20:04:36.698Z,4.30
2018-02-04T20:07:04.234Z,4.27
2018-02-04T20:09:31.704Z,3.90
2018-02-04T20:11:59.484Z,4.63
2018-02-04T20:14:26.997Z,4.20
2018-02-04T20:16:54.436Z,4.00
2018-02-04T20:19:22.253Z,4.00
2018-02-04T20:21:49.692Z,4.37
2018-02-04T20:24:17.135Z,3.47
2018-02-04T20:26:45.346Z,4.70
2018-02-04T20:29:12.815Z,4.57
2018-02-04T20:31:40.297Z,4.47
2018-02-04T20:34:19.689Z,3.87
2018-02-04T20:36:47.164Z,4.73
2018-02-04T20:39:14.605Z,5.10
2018-02-04T20:41:42.059Z,4.13
2018-02-04T20:44:09.529Z,5.07
2018-02-04T20:46:36.970Z,4.90
2018-02-04T20:49:04.468Z,4.80
2018-02-04T20:51:31.908Z,4.23
2018-02-04T20:53:59.347Z,4.30
2018-02-04T20:56:26.805Z,5.40
2018-02-04T20:58:54.237Z,4.83
2018-02-04T21:01:21.837Z,4.60
2018-02-04T21:03:49.277Z,4.33
2018-02-04T21:06:16.709Z,4.13
2018-02-04T21:08:44.170Z,3.73
2018-02-04T21:11:11.621Z,5.03
2018-02-04T21:13:39.216Z,3.80
2018-02-04T21:16:06.652Z,4.90
2018-02-04T21:18:34.093Z,4.90
2018-02-04T21:21:01.553Z,4.63
2018-02-04T21:23:28.997Z,3.77
2018-02-04T21:25:56.707Z,4.70
2018-02-04T21:28:24.145Z,5.10
2018-02-04T21:30:51.588Z,4.33
2018-02-04T21:33:19.057Z,4.47
2018-02-04T21:35:46.527Z,4.17
2018-02-04T21:38:14.194Z,5.10
2018-02-04T21:40:41.660Z,3.80
2018-02-04T21:43:09.108Z,5.00
2018-02-04T21:45:36.565Z,5.70
2018-02-04T21:48:04.017Z,5.50
2018-02-04T21:50:31.448Z,5.67
2018-02-04T21:52:58.913Z,6.67
2018-02-04T21:55:26.391Z,5.07
2018-02-04T21:57:53.832Z,6.90
2018-02-04T22:00:21.289Z,6.80
2018-02-04T22:02:48.728Z,7.80
2018-02-04T22:05:16.197Z,6.57
2018-02-04T22:07:43.658Z,6.67
2018-02-04T22:10:11.121Z,6.73
2018-02-04T22:12:38.560Z,6.07
2018-02-04T22:15:06.161Z,6.93
2018-02-04T22:17:33.618Z,5.60
2018-02-04T22:20:01.091Z,6.20
2018-02-04T22:22:28.772Z,6.40
2018-02-04T22:24:56.222Z,6.00
2018-02-04T22:27:23.664Z,6.03
2018-02-04T22:29:51.285Z,5.93
2018-02-04T22:32:18.726Z,7.50
2018-02-04T22:34:46.156Z,6.70
2018-02-04T22:37:13.642Z,5.40
2018-02-04T22:39:41.083Z,6.27
2018-02-04T22:42:08.532Z,5.83
2018-02-04T22:44:35.989Z,6.13
2018-02-04T22:47:03.429Z,6.07
2018-02-04T22:49:30.869Z,6.30
2018-02-04T22:51:58.433Z,8.00
2018-02-04T22:54:25.869Z,7.30
2018-02-04T22:56:53.325Z,5.93
2018-02-04T22:59:20.781Z,5.63
2018-02-04T23:01:48.217Z,7.70
2018-02-04T23:04:15.880Z,6.30
2018-02-04T23:06:43.321Z,5.63
2018-02-04T23:09:10.756Z,5.40
2018-02-04T23:11:38.224Z,5.23
2018-02-04T23:14:05.689Z,6.97
2018-02-04T23:16:33.268Z,5.10
2018-02-04T23:19:00.784Z,6.40
2018-02-04T23:21:28.224Z,5.87
2018-02-04T23:23:55.676Z,5.93
2018-02-04T23:26:23.109Z,5.67
2018-02-04T23:28:50.759Z,6.27
2018-02-04T23:31:18.204Z,5.60
2018-02-04T23:33:45.655Z,7.20
2018-02-04T23:36:13.133Z,5.83
2018-02-04T23:38:40.569Z,6.60
2018-02-04T23:41:08.244Z,6.60
2018-02-04T23:43:35.702Z,6.20
2018-02-04T23:46:03.145Z,6.30
2018-02-04T23:48:30.596Z,5.97
2018-02-04T23:50:58.033Z,5.73
2018-02-04T23:53:25.736Z,6.23
2018-02-04T23:55:53.177Z,6.43
2018-02-04T23:58:20.608Z,6.37
